Time;durP1;ratioP1;P1;durP2;ratioP2;P2;SDS_P1;SDS_P2;PMS_P1;PMS_P2;Temp;Humidity;BMP_temperature;BMP_pressure;BME280_temperature;BME280_humidity;BME280_pressure;Samples;Min_cycle;Max_cycle;Signal;HPM_P1;HPM_P2
2022/08/21 00:00:24;;;;;;;8.00;5.23;;;17.00;99.90;;;;;;4828832;29;20213;-86
2022/08/21 00:03:03;;;;;;;7.27;5.47;;;17.00;99.90;;;;;;4827848;29;20231;-86
2022/08/21 00:05:32;;;;;;;10.30;5.50;;;17.00;99.90;;;;;;4812246;29;20213;-85
2022/08/21 00:08:02;;;;;;;10.60;5.47;;;16.90;99.90;;;;;;4827857;29;20209;-85
2022/08/21 00:10:29;;;;;;;11.90;5.10;;;16.90;99.90;;;;;;4829418;29;20221;-86
2022/08/21 00:12:57;;;;;;;10.13;5.77;;;16.80;99.90;;;;;;4841615;29;20320;-83
2022/08/21 00:20:15;;;;;;;;;;;;;;;;;;;;;
2022/08/21 00:24:14;;;;;;;10.43;4.93;;;16.80;99.90;;;;;;4680684;30;20222;-86
2022/08/21 00:35:15;;;;;;;8.43;5.13;;;16.60;99.90;;;;;;5144624;27;20598;-86
2022/08/21 00:37:43;;;;;;;6.30;5.33;;;16.60;99.90;;;;;;5117025;28;20300;-85
2022/08/21 00:40:19;;;;;;;9.30;5.40;;;16.60;99.90;;;;;;5108660;28;20233;-85
2022/08/21 00:42:49;;;;;;;11.67;5.80;;;16.50;99.90;;;;;;5111319;28;20216;-85
2022/08/21 00:45:21;;;;;;;11.33;5.40;;;16.50;99.90;;;;;;5096425;28;20207;-86
2022/08/21 00:47:49;;;;;;;8.20;5.33;;;16.50;99.90;;;;;;5096950;28;20211;-85
2022/08/21 00:50:20;;;;;;;12.50;6.00;;;16.50;99.90;;;;;;5109629;28;20243;-86
2022/08/21 00:52:50;;;;;;;8.77;5.17;;;16.50;99.90;;;;;;5111442;28;20202;-86
2022/08/21 00:55:50;;;;;;;12.50;5.20;;;16.60;99.90;;;;;;5136461;27;20202;-86
2022/08/21 00:58:28;;;;;;;13.53;6.00;;;16.50;99.90;;;;;;5106013;28;20214;-85
2022/08/21 01:00:57;;;;;;;12.30;6.37;;;16.50;99.90;;;;;;5143302;27;20191;-85
2022/08/21 01:03:27;;;;;;;8.40;5.30;;;16.40;99.90;;;;;;5140257;27;20203;-85
2022/08/21 01:05:55;;;;;;;7.53;5.13;;;16.40;99.90;;;;;;5129246;28;20265;-86
2022/08/21 01:08:23;;;;;;;9.53;5.40;;;16.40;99.90;;;;;;5124581;28;20187;-86
2022/08/21 01:10:55;;;;;;;9.20;5.27;;;16.40;99.90;;;;;;5129349;28;20209;-87
2022/08/21 01:13:24;;;;;;;9.93;5.13;;;16.30;99.90;;;;;;5124220;28;20273;-86
2022/08/21 01:15:56;;;;;;;7.50;4.80;;;16.30;99.90;;;;;;5135476;27;20203;-85
2022/08/21 01:18:23;;;;;;;8.83;5.23;;;16.30;99.90;;;;;;5115304;28;20222;-86
2022/08/21 01:21:11;;;;;;;8.77;5.13;;;16.40;99.90;;;;;;5132411;27;20210;-86
2022/08/21 01:23:42;;;;;;;9.07;5.27;;;16.20;99.90;;;;;;5130407;27;20193;-86
2022/08/21 01:26:12;;;;;;;10.73;5.17;;;16.30;99.90;;;;;;5132813;27;20179;-84
2022/08/21 01:29:00;;;;;;;7.73;5.30;;;16.20;99.90;;;;;;5129066;27;20200;-86
2022/08/21 01:31:29;;;;;;;9.57;5.67;;;16.20;99.90;;;;;;5107101;28;20203;-86
2022/08/21 01:33:57;;;;;;;8.83;5.87;;;16.10;99.90;;;;;;5091162;28;20239;-85
2022/08/21 01:36:25;;;;;;;8.33;5.43;;;16.20;99.90;;;;;;5117047;28;20238;-85
2022/08/21 01:38:55;;;;;;;10.77;5.43;;;16.10;99.90;;;;;;5111874;28;20208;-85
2022/08/21 01:41:22;;;;;;;11.27;6.07;;;16.10;99.90;;;;;;5098003;28;20349;-86
2022/08/21 01:43:56;;;;;;;10.40;5.70;;;16.10;99.90;;;;;;5115866;28;20210;-85
2022/08/21 01:46:23;;;;;;;8.77;5.70;;;16.00;99.90;;;;;;5097500;28;20579;-84
2022/08/21 01:48:53;;;;;;;10.63;5.37;;;16.00;99.90;;;;;;5092706;28;20218;-85
2022/08/21 01:51:23;;;;;;;11.60;5.87;;;16.00;99.90;;;;;;5101159;28;20324;-86
2022/08/21 01:53:52;;;;;;;14.93;5.90;;;16.00;99.90;;;;;;5081667;28;20227;-86
2022/08/21 01:56:21;;;;;;;12.43;5.50;;;15.90;99.90;;;;;;5102957;28;20207;-85
2022/08/21 01:58:49;;;;;;;8.53;5.20;;;15.90;99.90;;;;;;5081063;28;20221;-86
2022/08/21 02:01:16;;;;;;;8.30;5.97;;;15.90;99.90;;;;;;5077942;28;20200;-87
2022/08/21 02:03:43;;;;;;;9.83;4.90;;;15.90;99.90;;;;;;5085459;28;20212;-86
2022/08/21 02:06:17;;;;;;;11.43;5.50;;;15.80;99.90;;;;;;5073613;28;20205;-84
2022/08/21 02:08:46;;;;;;;7.33;5.30;;;15.80;99.90;;;;;;5063036;28;20238;-85
2022/08/21 02:11:16;;;;;;;8.90;5.53;;;15.80;99.90;;;;;;5078836;28;20211;-86
2022/08/21 02:13:44;;;;;;;12.23;5.40;;;15.80;99.90;;;;;;5096601;28;20231;-85
2022/08/21 02:16:11;;;;;;;9.27;5.83;;;15.80;99.90;;;;;;5086596;28;20279;-85
2022/08/21 02:18:45;;;;;;;7.77;4.83;;;15.80;99.90;;;;;;5073433;28;20511;-86
2022/08/21 02:21:12;;;;;;;8.27;5.33;;;15.80;99.90;;;;;;5079524;28;20215;-86
2022/08/21 02:23:39;;;;;;;10.93;5.97;;;15.80;99.90;;;;;;5096029;28;20260;-86
2022/08/21 02:26:08;;;;;;;11.53;5.67;;;15.80;99.90;;;;;;5093069;28;20200;-85
2022/08/21 02:28:36;;;;;;;10.50;5.70;;;15.80;99.90;;;;;;5093304;28;20216;-85
2022/08/21 02:31:05;;;;;;;13.57;5.83;;;15.80;99.90;;;;;;5094679;28;20700;-85
2022/08/21 02:33:33;;;;;;;7.30;5.30;;;15.80;99.90;;;;;;5093059;28;20243;-84
2022/08/21 02:36:01;;;;;;;8.93;5.67;;;15.70;99.90;;;;;;5079135;28;20223;-85
2022/08/21 02:38:34;;;;;;;7.83;5.57;;;15.70;99.90;;;;;;5098756;28;20309;-84
2022/08/21 02:41:01;;;;;;;8.60;5.67;;;15.70;99.90;;;;;;5094841;28;20282;-85
2022/08/21 02:43:28;;;;;;;9.30;5.63;;;15.70;99.90;;;;;;5094867;28;20204;-85
2022/08/21 02:45:58;;;;;;;8.07;5.50;;;15.70;99.90;;;;;;5075542;28;20251;-85
2022/08/21 02:48:28;;;;;;;9.83;5.13;;;15.70;99.90;;;;;;5063670;28;20223;-86
2022/08/21 02:51:00;;;;;;;9.23;5.50;;;15.70;99.90;;;;;;5081194;28;20201;-84
2022/08/21 02:53:29;;;;;;;9.53;5.37;;;15.70;99.90;;;;;;5077470;28;20248;-84
2022/08/21 02:55:58;;;;;;;10.43;5.27;;;15.70;99.90;;;;;;5087568;28;20204;-86
2022/08/21 02:58:31;;;;;;;8.50;5.47;;;15.70;99.90;;;;;;5093170;28;20253;-86
2022/08/21 03:00:58;;;;;;;10.00;5.87;;;15.70;99.90;;;;;;5068638;28;20247;-85
2022/08/21 03:03:27;;;;;;;11.27;5.73;;;15.70;99.90;;;;;;5077003;28;20208;-86
2022/08/21 03:05:55;;;;;;;11.17;5.53;;;15.60;99.90;;;;;;5093992;28;20728;-85
2022/08/21 03:08:23;;;;;;;10.27;5.37;;;15.60;99.90;;;;;;5093134;28;20207;-87
2022/08/21 03:10:54;;;;;;;8.47;5.87;;;15.60;99.90;;;;;;5086683;28;20207;-85
2022/08/21 03:13:21;;;;;;;9.00;5.60;;;15.60;99.90;;;;;;5091427;28;20212;-84
2022/08/21 03:15:49;;;;;;;8.50;5.93;;;15.60;99.90;;;;;;5091299;28;20200;-85
2022/08/21 03:18:17;;;;;;;14.70;7.47;;;15.60;99.90;;;;;;5088810;28;20220;-85
2022/08/21 03:20:45;;;;;;;8.53;5.63;;;15.50;99.90;;;;;;5093637;28;20887;-85
2022/08/21 03:23:15;;;;;;;12.80;6.60;;;15.50;99.90;;;;;;5063631;28;20208;-85
2022/08/21 03:25:47;;;;;;;13.13;5.70;;;15.50;99.90;;;;;;5092831;28;20280;-86
2022/08/21 03:28:17;;;;;;;11.80;6.80;;;15.30;99.90;;;;;;5075475;28;20202;-85
2022/08/21 03:30:46;;;;;;;11.93;6.93;;;15.50;99.90;;;;;;5081998;28;20211;-85
2022/08/21 03:33:14;;;;;;;12.67;6.93;;;15.50;99.90;;;;;;5088640;28;20315;-85
2022/08/21 03:35:43;;;;;;;13.03;6.70;;;15.40;99.90;;;;;;5074337;28;20188;-86
2022/08/21 03:38:12;;;;;;;9.20;5.90;;;15.40;99.90;;;;;;5095320;28;20215;-85
2022/08/21 03:40:41;;;;;;;10.23;6.57;;;15.30;99.90;;;;;;5070625;28;21040;-84
2022/08/21 03:43:09;;;;;;;10.80;6.33;;;15.30;99.90;;;;;;5092539;28;20216;-85
2022/08/21 03:45:37;;;;;;;12.13;6.10;;;15.30;99.90;;;;;;5076812;28;20219;-86
2022/08/21 03:48:05;;;;;;;10.23;5.97;;;15.30;99.90;;;;;;5074176;28;20206;-84
2022/08/21 03:50:37;;;;;;;10.70;6.10;;;15.30;99.90;;;;;;5088176;28;20981;-86
2022/08/21 03:53:08;;;;;;;9.30;6.13;;;15.30;99.90;;;;;;5091934;28;20740;-85
2022/08/21 03:55:48;;;;;;;12.23;6.63;;;15.20;99.90;;;;;;5091568;28;20227;-84
2022/08/21 03:58:18;;;;;;;10.10;6.47;;;15.20;99.90;;;;;;5064171;28;20212;-85
2022/08/21 04:00:47;;;;;;;9.13;6.20;;;15.30;99.90;;;;;;5065298;28;20886;-84
2022/08/21 04:03:15;;;;;;;11.20;6.70;;;15.20;99.90;;;;;;5090937;28;20203;-86
2022/08/21 04:05:45;;;;;;;8.43;6.20;;;15.20;99.90;;;;;;5091182;28;20235;-85
2022/08/21 04:08:13;;;;;;;9.43;5.83;;;15.10;99.90;;;;;;5091022;28;20216;-85
2022/08/21 04:10:42;;;;;;;9.07;5.50;;;15.10;99.90;;;;;;5090723;28;20212;-86
2022/08/21 04:13:10;;;;;;;9.83;5.60;;;15.10;99.90;;;;;;5080708;28;20246;-85
2022/08/21 04:15:37;;;;;;;9.00;6.27;;;15.10;99.90;;;;;;5084366;28;20257;-85
2022/08/21 04:18:05;;;;;;;9.93;6.27;;;15.10;99.90;;;;;;5071947;28;20577;-86
2022/08/21 04:20:33;;;;;;;7.53;5.73;;;15.10;99.90;;;;;;5069284;28;20232;-85
2022/08/21 04:23:01;;;;;;;9.23;5.47;;;15.00;99.90;;;;;;5063236;28;20211;-83
2022/08/21 04:25:28;;;;;;;11.83;6.10;;;15.00;99.90;;;;;;5072872;28;21328;-88
2022/08/21 04:27:56;;;;;;;11.17;6.17;;;15.00;99.90;;;;;;5071390;28;20208;-85
2022/08/21 04:30:23;;;;;;;8.10;6.20;;;14.90;99.90;;;;;;5068450;28;20614;-86
2022/08/21 04:32:55;;;;;;;8.37;5.97;;;14.90;99.90;;;;;;5088335;28;20314;-86
2022/08/21 04:35:25;;;;;;;8.87;5.60;;;14.90;99.90;;;;;;5085489;28;20232;-85
2022/08/21 04:37:52;;;;;;;8.97;6.20;;;14.90;99.90;;;;;;5090045;28;20235;-86
2022/08/21 04:40:21;;;;;;;12.17;6.13;;;14.90;99.90;;;;;;5082434;28;20941;-85
2022/08/21 04:42:51;;;;;;;13.07;6.60;;;14.90;99.90;;;;;;5065927;28;20235;-84
2022/08/21 04:45:27;;;;;;;11.07;6.17;;;14.90;99.90;;;;;;5090852;28;20660;-86
2022/08/21 04:47:56;;;;;;;7.10;5.07;;;14.90;99.90;;;;;;5072063;28;20217;-84
2022/08/21 04:50:28;;;;;;;8.77;5.57;;;14.80;99.90;;;;;;5089221;28;20203;-85
2022/08/21 04:52:56;;;;;;;6.63;4.93;;;14.90;99.90;;;;;;5069058;28;20215;-85
2022/08/21 04:55:26;;;;;;;8.30;5.93;;;14.80;99.90;;;;;;5089926;28;20230;-85
2022/08/21 04:57:54;;;;;;;8.40;5.70;;;14.80;99.90;;;;;;5086591;28;20200;-84
2022/08/21 05:00:24;;;;;;;11.90;5.97;;;14.80;99.90;;;;;;5089337;28;20219;-85
2022/08/21 05:02:58;;;;;;;9.30;5.50;;;14.80;99.90;;;;;;5082871;28;20199;-85
2022/08/21 05:05:29;;;;;;;9.23;5.60;;;14.80;99.90;;;;;;5089018;28;20678;-86
2022/08/21 05:08:01;;;;;;;8.70;5.87;;;14.80;99.90;;;;;;5070065;28;20214;-84
2022/08/21 05:10:31;;;;;;;9.80;6.10;;;14.80;99.90;;;;;;5070624;28;20232;-87
2022/08/21 05:13:01;;;;;;;8.37;5.67;;;14.90;99.90;;;;;;5070649;28;20303;-85
2022/08/21 05:15:33;;;;;;;6.60;5.33;;;14.90;99.90;;;;;;5070534;28;20294;-85
2022/08/21 05:18:03;;;;;;;10.90;6.00;;;14.90;99.90;;;;;;5087807;28;20569;-86
2022/08/21 05:20:44;;;;;;;8.70;6.27;;;15.00;99.90;;;;;;5091521;28;20230;-85
2022/08/21 05:23:15;;;;;;;11.27;6.40;;;15.00;99.90;;;;;;5074820;28;20210;-86
2022/08/21 05:25:43;;;;;;;11.80;6.57;;;15.10;99.90;;;;;;5075510;28;20215;-85
2022/08/21 05:28:20;;;;;;;11.87;6.27;;;15.10;99.90;;;;;;5097003;28;20258;-85
2022/08/21 05:30:50;;;;;;;16.23;7.40;;;15.10;99.90;;;;;;5078363;28;20283;-85
2022/08/21 05:33:17;;;;;;;11.03;7.40;;;15.20;99.90;;;;;;5069735;28;20236;-84
2022/08/21 05:35:56;;;;;;;12.53;7.43;;;15.30;99.90;;;;;;5054841;28;20232;-84
2022/08/21 05:38:31;;;;;;;11.27;8.13;;;15.40;99.90;;;;;;5055308;28;20644;-84
2022/08/21 05:41:20;;;;;;;10.73;8.03;;;15.40;99.90;;;;;;5055407;28;20283;-86
2022/08/21 05:44:07;;;;;;;15.53;8.60;;;15.60;99.90;;;;;;5072000;28;20214;-85
2022/08/21 05:46:41;;;;;;;12.00;8.73;;;15.60;99.90;;;;;;5054272;28;20287;-87
2022/08/21 05:49:15;;;;;;;15.07;8.90;;;15.70;99.90;;;;;;5071432;28;20975;-87
2022/08/21 05:51:45;;;;;;;12.83;8.30;;;15.80;99.90;;;;;;5054478;28;20235;-85
2022/08/21 05:54:35;;;;;;;12.57;8.00;;;15.90;99.90;;;;;;5073280;28;20224;-87
2022/08/21 05:57:05;;;;;;;13.50;8.03;;;16.00;99.90;;;;;;5073511;28;20196;-86
2022/08/21 05:59:32;;;;;;;12.37;7.90;;;16.10;99.90;;;;;;5071152;28;20208;-86
2022/08/21 06:02:01;;;;;;;14.47;7.67;;;16.10;99.90;;;;;;5053032;28;20208;-86
2022/08/21 06:04:36;;;;;;;12.30;7.77;;;16.20;99.90;;;;;;5053828;28;20212;-87
2022/08/21 06:07:04;;;;;;;12.70;8.60;;;16.30;99.90;;;;;;5054249;28;20669;-86
2022/08/21 06:09:32;;;;;;;14.53;8.47;;;16.40;99.90;;;;;;5075241;28;20728;-87
2022/08/21 06:12:11;;;;;;;13.90;8.43;;;16.50;99.90;;;;;;5075537;28;20287;-88
2022/08/21 06:14:40;;;;;;;11.50;8.40;;;16.60;99.90;;;;;;5065448;28;20339;-88
2022/08/21 06:17:12;;;;;;;13.97;8.60;;;16.70;99.90;;;;;;5084375;28;20250;-86
2022/08/21 06:19:39;;;;;;;15.25;8.07;;;17.20;99.90;;;;;;5074493;28;20272;-87
2022/08/21 06:22:06;;;;;;;12.82;6.72;;;18.30;99.90;;;;;;5092574;28;20288;-87
2022/08/21 06:24:37;;;;;;;12.20;6.90;;;19.50;99.90;;;;;;5066391;28;20201;-86
2022/08/21 06:27:07;;;;;;;11.65;6.20;;;21.00;99.90;;;;;;5079452;28;20197;-86
2022/08/21 06:29:35;;;;;;;11.60;5.80;;;21.80;99.90;;;;;;5080815;28;20212;-87
2022/08/21 06:32:15;;;;;;;8.02;5.05;;;22.80;99.90;;;;;;5084122;28;20196;-86
2022/08/21 06:34:43;;;;;;;8.73;5.18;;;24.00;99.90;;;;;;5101603;28;20262;-86
2022/08/21 06:37:11;;;;;;;7.95;5.13;;;24.90;99.90;;;;;;5087119;28;20700;-86
2022/08/21 06:39:39;;;;;;;12.48;4.80;;;25.70;99.90;;;;;;5086897;28;20204;-86
2022/08/21 06:42:17;;;;;;;9.32;4.20;;;26.60;99.90;;;;;;5099509;28;20218;-84
2022/08/21 06:44:47;;;;;;;7.13;3.58;;;27.30;99.90;;;;;;5080510;28;20195;-85
2022/08/21 06:47:24;;;;;;;8.57;3.83;;;27.80;99.90;;;;;;5097690;28;20215;-86
2022/08/21 06:53:16;;;;;;;4.68;2.58;;;28.60;99.90;;;;;;5093940;28;20198;-85
2022/08/21 06:55:45;;;;;;;7.47;3.50;;;28.60;99.90;;;;;;5100390;28;20300;-86
2022/08/21 06:58:24;;;;;;;6.43;2.92;;;28.70;99.90;;;;;;5108790;28;20203;-85
2022/08/21 07:00:58;;;;;;;8.10;3.17;;;28.80;99.90;;;;;;5110585;28;20271;-85
2022/08/21 07:03:38;;;;;;;5.60;2.25;;;28.90;99.90;;;;;;5084065;28;20247;-86
2022/08/21 07:06:32;;;;;;;;;;;;;;;;;;;;;
2022/08/21 07:09:07;;;;;;;5.88;2.50;;;29.00;99.90;;;;;;5101101;28;20216;-86
2022/08/21 07:11:38;;;;;;;7.93;2.58;;;28.80;99.90;;;;;;5098807;28;20218;-86
2022/08/21 07:14:15;;;;;;;4.90;2.22;;;28.60;99.70;;;;;;5098148;28;20269;-86
2022/08/21 07:16:58;;;;;;;6.60;2.47;;;28.50;99.50;;;;;;5080838;28;20262;-86
2022/08/21 07:19:25;;;;;;;5.10;3.00;;;28.70;99.60;;;;;;5079043;28;20285;-87
2022/08/21 07:22:02;;;;;;;6.60;2.38;;;29.10;98.90;;;;;;5079304;28;20218;-83
2022/08/21 07:24:30;;;;;;;6.15;2.38;;;28.90;97.20;;;;;;5090534;28;20259;-84
2022/08/21 07:27:07;;;;;;;6.80;2.40;;;28.70;98.00;;;;;;5088329;28;20209;-84
2022/08/21 07:29:58;;;;;;;5.35;2.22;;;28.40;97.70;;;;;;5089471;28;20627;-84
2022/08/21 07:32:35;;;;;;;6.03;1.90;;;27.90;97.90;;;;;;5087845;28;20292;-85
2022/08/21 07:35:20;;;;;;;5.93;2.58;;;28.10;98.30;;;;;;5073351;28;20228;-83
2022/08/21 07:37:50;;;;;;;4.93;2.45;;;28.20;98.00;;;;;;5057563;28;20231;-84
2022/08/21 07:40:38;;;;;;;7.20;2.58;;;28.30;98.00;;;;;;5070822;28;20213;-84
2022/08/21 07:43:06;;;;;;;5.75;2.10;;;28.60;97.60;;;;;;5067300;28;20204;-82
2022/08/21 07:45:47;;;;;;;6.47;2.00;;;29.00;97.30;;;;;;5066685;28;20208;-84
2022/08/21 07:48:15;;;;;;;4.85;1.65;;;29.30;96.40;;;;;;5051710;28;20208;-84
2022/08/21 07:50:42;;;;;;;6.95;2.20;;;29.50;95.90;;;;;;5069800;28;20296;-84
2022/08/21 07:53:19;;;;;;;4.70;1.85;;;29.80;95.40;;;;;;5076391;28;20714;-83
2022/08/21 07:55:46;;;;;;;7.68;2.03;;;30.00;94.60;;;;;;5058536;28;20228;-82
2022/08/21 07:58:45;;;;;;;4.47;1.77;;;30.00;94.30;;;;;;5077141;28;20758;-86
2022/08/21 08:01:30;;;;;;;5.10;1.95;;;30.10;93.60;;;;;;5076017;28;20253;-86
2022/08/21 08:04:03;;;;;;;3.47;1.80;;;29.90;92.80;;;;;;5051237;28;20228;-79
2022/08/21 08:06:41;;;;;;;4.10;1.77;;;29.70;93.50;;;;;;5060021;28;20204;-83
2022/08/21 08:09:23;;;;;;;4.53;1.90;;;29.40;93.50;;;;;;5060688;28;20209;-83
2022/08/21 08:11:54;;;;;;;6.03;1.92;;;28.80;93.70;;;;;;5074325;28;20200;-82
2022/08/21 08:14:22;;;;;;;4.20;2.33;;;28.90;94.70;;;;;;5076597;28;20193;-86
2022/08/21 08:17:02;;;;;;;4.45;2.20;;;29.00;94.60;;;;;;5045610;28;20329;-85
2022/08/21 08:19:32;;;;;;;7.25;2.50;;;29.20;95.30;;;;;;5056004;28;20207;-84
2022/08/21 08:25:05;;;;;;;9.30;2.72;;;29.00;95.80;;;;;;5058070;28;20216;-84
2022/08/21 08:27:42;;;;;;;5.88;2.55;;;29.00;96.10;;;;;;5059443;28;20213;-83
2022/08/21 08:30:12;;;;;;;5.65;2.25;;;28.90;96.50;;;;;;5070152;28;20246;-82
2022/08/21 08:32:39;;;;;;;10.50;2.60;;;29.10;96.40;;;;;;5079661;28;20205;-82
2022/08/21 08:35:09;;;;;;;7.07;2.80;;;29.20;96.50;;;;;;5101404;28;20844;-83
2022/08/21 08:37:39;;;;;;;6.45;2.40;;;29.20;96.40;;;;;;5103782;28;20220;-85
2022/08/21 08:40:15;;;;;;;7.78;2.80;;;29.30;96.50;;;;;;5111309;28;20234;-85
2022/08/21 08:42:47;;;;;;;6.97;2.50;;;29.30;96.40;;;;;;5111970;28;20195;-84
2022/08/21 08:45:19;;;;;;;7.68;2.50;;;28.90;96.20;;;;;;5112019;28;20200;-84
2022/08/21 08:47:58;;;;;;;8.05;2.58;;;28.80;96.80;;;;;;5114544;28;20200;-84
2022/08/21 08:50:49;;;;;;;10.23;2.50;;;28.50;97.10;;;;;;5114527;28;20202;-85
2022/08/21 08:53:51;;;;;;;7.63;2.22;;;28.70;97.90;;;;;;5084365;28;20244;-87
2022/08/21 08:56:27;;;;;;;10.20;3.20;;;28.60;97.30;;;;;;5096637;28;20600;-83
2022/08/21 08:59:06;;;;;;;7.80;2.60;;;28.60;97.30;;;;;;5097726;28;20199;-86
2022/08/21 09:01:34;;;;;;;5.97;2.45;;;28.50;97.60;;;;;;5095169;28;20191;-85
2022/08/21 09:04:13;;;;;;;9.07;3.35;;;28.50;97.60;;;;;;5076303;28;20208;-87
2022/08/21 09:07:00;;;;;;;8.57;2.22;;;28.80;97.80;;;;;;5093221;28;20207;-88
2022/08/21 09:09:54;;;;;;;6.93;2.25;;;29.10;97.10;;;;;;5091074;28;20310;-88
2022/08/21 09:13:01;;;;;;;8.80;2.58;;;29.40;97.00;;;;;;5089521;28;20657;-85
2022/08/21 09:16:14;;;;;;;4.43;1.95;;;29.60;96.40;;;;;;5071653;28;20241;-86
2022/08/21 09:19:11;;;;;;;5.45;2.60;;;29.70;96.20;;;;;;5055424;28;20207;-85
2022/08/21 09:22:00;;;;;;;5.68;1.90;;;29.80;96.20;;;;;;5065591;28;20213;-85
2022/08/21 09:24:49;;;;;;;8.43;2.17;;;29.50;96.10;;;;;;5068035;28;20261;-85
2022/08/21 09:27:21;;;;;;;8.75;2.60;;;29.20;95.90;;;;;;5088325;28;20208;-86
2022/08/21 09:29:57;;;;;;;7.68;2.83;;;29.20;95.70;;;;;;5072287;28;20746;-84
2022/08/21 09:32:28;;;;;;;5.70;2.10;;;28.60;96.30;;;;;;5072963;28;20237;-87
2022/08/21 09:35:15;;;;;;;6.50;2.03;;;28.80;97.00;;;;;;5069799;28;20296;-83
2022/08/21 09:38:01;;;;;;;7.15;2.28;;;28.90;96.60;;;;;;5072244;28;20212;-84
2022/08/21 09:40:35;;;;;;;6.22;2.15;;;28.80;96.30;;;;;;5074019;28;20593;-86
2022/08/21 09:43:16;;;;;;;9.40;2.40;;;28.70;96.80;;;;;;5072842;28;20959;-85
2022/08/21 09:45:45;;;;;;;6.68;2.28;;;28.80;96.50;;;;;;5071638;28;20207;-87
2022/08/21 09:48:24;;;;;;;6.93;2.38;;;28.60;96.60;;;;;;5067671;28;20365;-84
2022/08/21 09:51:20;;;;;;;5.93;2.33;;;28.70;96.90;;;;;;5084181;28;20266;-86
2022/08/21 09:54:26;;;;;;;6.53;2.28;;;28.80;96.50;;;;;;5073915;28;20585;-88
2022/08/21 09:59:55;;;;;;;6.60;1.98;;;28.60;96.50;;;;;;5084344;28;20703;-87
2022/08/21 10:02:30;;;;;;;5.80;2.03;;;28.20;96.50;;;;;;5090260;28;20212;-84
2022/08/21 10:05:37;;;;;;;7.82;2.28;;;28.10;96.80;;;;;;5089396;28;20212;-85
2022/08/21 10:08:15;;;;;;;7.50;2.60;;;28.00;96.80;;;;;;5068801;28;20739;-86
2022/08/21 10:10:42;;;;;;;7.43;2.10;;;27.50;97.20;;;;;;5075822;28;20210;-86
2022/08/21 10:13:47;;;;;;;5.75;2.47;;;27.50;97.40;;;;;;5089317;28;20238;-86
2022/08/21 10:16:48;;;;;;;7.60;2.50;;;27.60;97.50;;;;;;5076557;28;20242;-86
2022/08/21 10:19:22;;;;;;;8.57;2.42;;;27.70;97.20;;;;;;5081347;28;20214;-85
2022/08/21 10:22:15;;;;;;;6.93;2.13;;;27.60;97.10;;;;;;5083089;28;20210;-86
2022/08/21 10:25:21;;;;;;;6.95;1.88;;;27.50;96.70;;;;;;5087097;28;20208;-85
2022/08/21 10:28:04;;;;;;;8.88;2.40;;;27.30;97.30;;;;;;5071512;28;20212;-85
2022/08/21 10:31:01;;;;;;;6.72;2.30;;;27.10;97.90;;;;;;5090063;28;20260;-86
2022/08/21 10:33:49;;;;;;;4.45;1.80;;;26.90;97.90;;;;;;5092308;28;20246;-88
2022/08/21 10:36:46;;;;;;;7.65;1.90;;;26.60;97.30;;;;;;5076969;28;20553;-86
2022/08/21 10:40:05;;;;;;;3.83;1.48;;;26.40;98.30;;;;;;5080107;28;20216;-86
2022/08/21 10:42:39;;;;;;;5.53;1.85;;;26.50;97.50;;;;;;5049142;28;20723;-85
2022/08/21 10:45:23;;;;;;;5.63;2.22;;;26.40;98.10;;;;;;5097725;28;20208;-85
2022/08/21 10:48:34;;;;;;;8.35;2.30;;;26.30;97.70;;;;;;5092867;28;20212;-86
2022/08/21 10:51:18;;;;;;;7.82;2.15;;;26.20;98.00;;;;;;5050159;28;20216;-85
2022/08/21 10:54:17;;;;;;;7.50;1.90;;;26.40;98.30;;;;;;5078261;28;20216;-84
2022/08/21 10:56:56;;;;;;;6.13;2.15;;;26.50;98.30;;;;;;5067647;28;20228;-81
2022/08/21 10:59:33;;;;;;;5.68;1.90;;;26.30;98.00;;;;;;5083484;28;20267;-82
2022/08/21 11:02:13;;;;;;;7.25;2.28;;;26.20;98.30;;;;;;5084245;28;20984;-85
2022/08/21 11:05:02;;;;;;;6.82;2.22;;;26.20;98.40;;;;;;5065929;28;20206;-83
2022/08/21 11:07:37;;;;;;;7.88;2.55;;;26.40;99.10;;;;;;5087215;28;20200;-84
2022/08/21 11:10:23;;;;;;;8.57;2.20;;;26.60;99.20;;;;;;5089528;28;20286;-86
2022/08/21 11:13:24;;;;;;;5.95;2.20;;;26.60;98.00;;;;;;5089392;28;20661;-83
2022/08/21 11:16:21;;;;;;;5.95;2.13;;;26.70;97.90;;;;;;5101974;28;20219;-88
2022/08/21 11:18:58;;;;;;;7.53;2.10;;;26.80;97.90;;;;;;5106026;28;20199;-84
2022/08/21 11:21:42;;;;;;;9.05;2.08;;;26.90;97.80;;;;;;5088288;28;20200;-88
2022/08/21 11:24:23;;;;;;;4.22;1.60;;;26.90;96.90;;;;;;5097380;28;20978;-85
2022/08/21 11:26:56;;;;;;;9.20;2.08;;;27.10;97.50;;;;;;5070262;28;20204;-85
2022/08/21 11:29:40;;;;;;;7.45;2.17;;;27.30;97.20;;;;;;5075103;28;20207;-84
2022/08/21 11:32:46;;;;;;;6.15;1.77;;;27.60;96.60;;;;;;5097062;28;20200;-84
2022/08/21 11:35:33;;;;;;;6.65;2.20;;;27.90;95.40;;;;;;5083581;28;20210;-84
2022/08/21 11:38:15;;;;;;;8.07;2.15;;;28.10;95.30;;;;;;5036590;28;20290;-83
2022/08/21 11:40:48;;;;;;;5.72;2.72;;;28.00;94.40;;;;;;5085392;28;20204;-84
2022/08/21 11:43:42;;;;;;;6.20;2.05;;;27.80;95.00;;;;;;5087757;28;20216;-83
2022/08/21 11:46:28;;;;;;;4.68;1.90;;;28.00;95.90;;;;;;5087579;28;20208;-84
2022/08/21 11:49:16;;;;;;;6.15;2.17;;;28.30;95.60;;;;;;5087483;28;20340;-84
2022/08/21 11:51:50;;;;;;;5.40;2.03;;;28.70;94.70;;;;;;5086774;28;20212;-83
2022/08/21 11:54:41;;;;;;;8.80;2.20;;;29.00;94.70;;;;;;5086991;28;20231;-82
2022/08/21 11:57:19;;;;;;;6.85;1.95;;;29.10;94.00;;;;;;5086930;28;20263;-83
2022/08/21 12:00:09;;;;;;;7.05;2.20;;;29.30;93.40;;;;;;5086414;28;20252;-83
2022/08/21 12:02:42;;;;;;;5.85;2.22;;;29.30;93.20;;;;;;5077192;28;20215;-82
2022/08/21 12:05:21;;;;;;;7.80;2.00;;;29.20;93.00;;;;;;5086862;28;20599;-83
2022/08/21 12:08:11;;;;;;;6.47;2.00;;;29.30;93.10;;;;;;5088619;28;20314;-83
2022/08/21 12:10:47;;;;;;;80.45;7.97;;;29.30;92.50;;;;;;5094805;28;20341;-82
2022/08/21 12:13:30;;;;;;;4.85;1.90;;;29.30;92.50;;;;;;5095413;28;20211;-83
2022/08/21 12:16:15;;;;;;;5.85;1.95;;;29.50;92.70;;;;;;5078180;28;20230;-83
2022/08/21 12:18:45;;;;;;;4.75;1.92;;;29.40;91.50;;;;;;5088177;28;20568;-82
2022/08/21 12:21:25;;;;;;;6.13;2.00;;;29.40;91.90;;;;;;5074840;28;20630;-83
2022/08/21 12:24:17;;;;;;;6.05;2.28;;;29.60;91.80;;;;;;5072291;28;20219;-81
2022/08/21 12:26:52;;;;;;;7.65;2.20;;;29.60;91.30;;;;;;5096155;28;20692;-83
2022/08/21 12:29:29;;;;;;;7.95;2.67;;;29.50;92.00;;;;;;5097385;28;20212;-86
2022/08/21 12:32:09;;;;;;;321.38;27.73;;;29.40;91.60;;;;;;5097954;28;20211;-83
2022/08/21 12:35:24;;;;;;;25.13;3.55;;;29.30;92.00;;;;;;5057334;28;20255;-84
2022/08/21 12:38:31;;;;;;;6.65;2.45;;;29.30;92.60;;;;;;5022345;28;20603;-82
2022/08/21 12:41:25;;;;;;;7.43;2.10;;;29.60;91.90;;;;;;5059319;28;20724;-82
2022/08/21 12:44:10;;;;;;;5.65;2.55;;;29.70;90.60;;;;;;5069349;28;20205;-83
2022/08/21 12:46:44;;;;;;;7.30;2.53;;;29.60;90.90;;;;;;5069099;28;20973;-85
2022/08/21 12:49:19;;;;;;;6.97;2.50;;;29.50;91.20;;;;;;5063265;28;20200;-81
2022/08/21 12:52:19;;;;;;;6.35;2.42;;;29.50;91.50;;;;;;5046135;28;20541;-84
2022/08/21 12:54:46;;;;;;;6.05;2.03;;;29.60;91.10;;;;;;5048106;28;20270;-86
2022/08/21 12:57:28;;;;;;;4.18;1.90;;;29.50;91.20;;;;;;5040026;28;20234;-84
2022/08/21 13:00:08;;;;;;;4.38;1.75;;;29.50;91.00;;;;;;5065539;28;20299;-84
2022/08/21 13:02:42;;;;;;;6.85;2.30;;;29.70;91.00;;;;;;5050520;28;20719;-90
2022/08/21 13:05:14;;;;;;;8.57;2.45;;;29.60;90.80;;;;;;5048189;28;20204;-89
2022/08/21 13:07:47;;;;;;;6.75;2.20;;;29.50;90.70;;;;;;5066312;28;20239;-88
2022/08/21 13:10:37;;;;;;;8.27;2.65;;;29.50;90.70;;;;;;5066960;28;20204;-89
2022/08/21 13:13:16;;;;;;;3.78;2.05;;;29.50;90.30;;;;;;5067470;28;20211;-89
2022/08/21 13:16:05;;;;;;;6.63;2.33;;;29.60;90.90;;;;;;5083257;28;20216;-90
2022/08/21 13:18:57;;;;;;;4.22;2.10;;;29.80;90.70;;;;;;5066454;28;20217;-90
2022/08/21 13:21:30;;;;;;;8.25;3.22;;;29.80;89.80;;;;;;5065057;28;20204;-90
2022/08/21 13:24:19;;;;;;;8.98;2.30;;;29.60;90.90;;;;;;5065181;28;20744;-88
2022/08/21 13:27:25;;;;;;;5.07;2.42;;;29.60;90.20;;;;;;5064103;28;20210;-88
2022/08/21 13:30:11;;;;;;;6.22;2.15;;;29.50;90.70;;;;;;5056684;28;20211;-89
2022/08/21 13:32:45;;;;;;;5.57;2.03;;;29.70;90.60;;;;;;5057861;28;20777;-89
2022/08/21 13:35:20;;;;;;;8.77;2.50;;;29.90;90.10;;;;;;5058382;28;20208;-90
2022/08/21 13:37:55;;;;;;;8.07;2.58;;;29.90;89.90;;;;;;5059980;28;20244;-89
2022/08/21 13:40:39;;;;;;;4.95;2.15;;;30.10;90.00;;;;;;5064747;28;20274;-88
2022/08/21 13:43:13;;;;;;;4.93;2.00;;;30.10;89.20;;;;;;5067864;28;20208;-88
2022/08/21 13:45:52;;;;;;;5.68;1.90;;;30.00;89.20;;;;;;5070622;28;20208;-90
2022/08/21 13:48:23;;;;;;;5.10;2.30;;;29.90;90.00;;;;;;5068643;28;20742;-89
2022/08/21 13:50:54;;;;;;;5.30;2.50;;;29.80;89.90;;;;;;5062979;28;20291;-89
2022/08/21 13:53:32;;;;;;;6.78;2.00;;;29.80;90.00;;;;;;5069757;28;20205;-89
2022/08/21 13:56:02;;;;;;;6.80;2.00;;;29.60;89.40;;;;;;5075812;28;20200;-90